16:20
Airports
History
Links
Donate
Help keep this website running!
PayPal
Bitcoin
This page is community maintained. The information is intended for PC simulator navigation or reference.
Always use approved charts for navigation.
H13
Ben Emge
Ben Emge (H13)
Belleville, Illinois, United States (62223)
4
Lat/Lng:38° 30' 55.18" N / 90° 1' 40.38" W
38.515328 / -90.027884
Elevation:555'ft / 169mMSL
ID / ICAO:H13
Runways:1
Longest:09-27
Grass 724m / 2,376ft
Nearby Weather15:53 GMT 2018-02-24
Nearby weather at KCPS, St Louis Downtown located 7.9 nautical miles from H13
Altimeter: 29.95
Visibility: 10.0 statute miles
Wind: 4 knots (from 030°)
Temp: 8°c / 46°f
Humidity: 93.4%

METAR: KCPS 241553Z 03004KT 10SM OVC006 08/07 A2995 RMK AO2 SLP144 T00780067

(Powered by phpweather)
Nearby VORs <50NM
Nearby NDBs
Runway 09 / 27
Dimensions:724.2 x 22.9m 2376' x 75'ft
Surface:Grass
Runway 09 [A]Runway 27 [B]
Heading:091°TH 271°TH
Lat:
Lng:
38° 30' 55.6"N
90° 1' 55.52"W
38° 30' 54.77"N
90° 1' 25.25"W
User Notes and Comments
38° 30' 55.18" N / 90° 1' 40.38" W
Distance To
Airport ID:
Nearby Airports
(R) Ben Emge 0.0 NM
2IL7 E 90°
(R) Aero Estates 1.7 NM
7IS2 WNW 291°
4 Harold Emmerich 5.2 NM
H10 E 83°
(C) St Louis Downtown 7.9 NM
KCPS ( WX ) WNW 298°
(R) Riebeling 8.7 NM
1IL4 SW 219°
4 Parks College 9.2 NM
H72 WNW 294°
(C) Scott Afb/midamerica 10.6 NM
KBLV ( WX ) ENE 78°
VFR Chart
Flight Planning at SkyVector.com